Urania — PAFG — position and weather

sailwx.info

Track history (hours):
 
Tides and Currents Weather Stations Pressure Air Temp Water Temp Dewpoint Dewpoint Depression Visibility Wind Speed Wind Dir Waves Ship Positions

Urania (Netherlands)

Flagship of the Royal Netherlands Naval College.

Last reported at 2017-Apr-21 14:00 UTC. Time now 2017-Apr-26 15:40 UTC.
Position N 52°58' E 004°47'.

Length 27 m; draft 2.6 m.

Type: Sailing vessel. MMSI: 245804000.

Date/timePositionNaut miles runAvg speedWind from/ knotsBaromVisibWave heightAir tempDewpointWater temp
2017-Apr-21 14:00N 52°58' E 004°47'0 0.0
2017-Apr-21 13:30N 52°58' E 004°47'0 0.0
2017-Apr-21 13:00N 52°58' E 004°47'0 0.5
2017-Apr-21 12:30N 52°58' E 004°47'0 0.0
2017-Apr-21 12:00N 52°58' E 004°47'0 0.0
2017-Apr-21 11:30N 52°58' E 004°47'0 0.0
2017-Apr-21 11:00N 52°58' E 004°47'0 0.0
2017-Apr-21 10:30N 52°58' E 004°47'0 0.0
2017-Apr-21 10:00N 52°58' E 004°47'0 0.0
2017-Apr-21 09:30N 52°58' E 004°47'0 0.0
2017-Apr-21 09:01N 52°58' E 004°47'0 0.0
2017-Apr-21 08:30N 52°58' E 004°47'1 1.5
2017-Apr-21 08:00N 52°58' E 004°46'2 3.5
2017-Apr-21 07:31N 52°58' E 004°43'2 3.9
2017-Apr-21 07:00N 52°56' E 004°42'2 3.4
2017-Apr-21 06:30N 52°55' E 004°42'1 2.8
2017-Apr-21 06:00N 52°53' E 004°40'2 3.1
2017-Apr-21 05:31N 52°52' E 004°39'2 3.3
2017-Apr-21 05:00N 52°51' E 004°37'2 3.8
2017-Apr-21 04:30N 52°49' E 004°36'2 4.1
2017-Apr-21 04:01N 52°47' E 004°35'2 4.5
2017-Apr-21 03:30N 52°45' E 004°34'2 4.4
2017-Apr-21 03:00N 52°43' E 004°33'2 4.7
2017-Apr-21 02:30N 52°41' E 004°32'2 4.5
2017-Apr-21 02:01N 52°38' E 004°31'3 5.2
2017-Apr-21 01:31N 52°36' E 004°30'3 5.4
2017-Apr-21 01:00N 52°33' E 004°29'3 5.7
2017-Apr-21 00:31N 52°31' E 004°27'3 5.7
2017-Apr-21 00:00N 52°28' E 004°26'3 6.0
2017-Apr-20 23:30N 52°25' E 004°24'3 6.0
2017-Apr-20 23:01N 52°22' E 004°24'2 4.9
2017-Apr-20 22:31N 52°22' E 004°20'3 5.9
2017-Apr-20 22:01N 52°22' E 004°15'3 5.7
2017-Apr-20 21:30N 52°22' E 004°11'3 6.3
2017-Apr-20 21:01N 52°19' E 004°10'3 6.6
2017-Apr-20 20:31N 52°16' E 004°10'3 6.0
2017-Apr-20 20:00N 52°13' E 004°11'3 5.3
2017-Apr-20 19:30N 52°10' E 004°11'2 4.9
2017-Apr-20 19:01N 52°08' E 004°10'2 4.4
2017-Apr-20 18:30N 52°06' E 004°09'2 4.9
2017-Apr-20 18:01N 52°04' E 004°06'2 4.7
2017-Apr-20 17:31N 52°03' E 004°03'2 4.9
2017-Apr-20 17:00N 52°01' E 004°00'2 4.6
2017-Apr-20 16:31N 51°59' E 003°58'2 4.4
2017-Apr-20 16:00N 51°58' E 003°55'2 4.6
2017-Apr-20 15:30N 51°57' E 003°52'2 4.6
2017-Apr-20 15:00N 51°55' E 003°49'21 5.4
2017-Apr-20 11:09N 51°42' E 003°23'7 6.6
2017-Apr-20 10:05N 51°37' E 003°15'1 6.9
2017-Apr-20 09:59N 51°36' E 003°14'3 6.8
2017-Apr-20 09:29N 51°34' E 003°11'3 7.0
2017-Apr-20 09:00N 51°31' E 003°08'4 7.3
2017-Apr-20 08:30N 51°28' E 003°04'4 7.3
2017-Apr-20 08:01N 51°25' E 003°01'4 7.8
2017-Apr-20 07:30N 51°22' E 002°58'4 7.1
2017-Apr-20 07:00N 51°19' E 002°55'3 6.1
2017-Apr-20 06:30N 51°16' E 002°54'2 3.9
2017-Apr-20 05:58N 51°14' E 002°55'0 0.0
2017-Apr-20 05:28N 51°14' E 002°55'0 0.0
2017-Apr-20 04:58N 51°14' E 002°55'0 0.0
2017-Apr-20 04:25N 51°14' E 002°55'0 0.0
2017-Apr-20 03:58N 51°14' E 002°55'0 0.0
2017-Apr-20 03:28N 51°14' E 002°55'0 0.0
2017-Apr-20 02:58N 51°14' E 002°55'0 0.0
2017-Apr-20 02:28N 51°14' E 002°55'0 0.0
2017-Apr-20 01:55N 51°14' E 002°55'0 0.0
2017-Apr-20 01:28N 51°14' E 002°55'0 0.0
2017-Apr-20 00:58N 51°14' E 002°55'0 0.0
2017-Apr-20 00:28N 51°14' E 002°55'0 0.0
2017-Apr-19 23:58N 51°14' E 002°55'0 0.0
2017-Apr-19 23:28N 51°14' E 002°55'0 0.0
2017-Apr-19 22:58N 51°14' E 002°55'0 0.0
2017-Apr-19 22:28N 51°14' E 002°55'0 0.0
2017-Apr-19 21:58N 51°14' E 002°55'0 0.0
2017-Apr-19 21:28N 51°14' E 002°55'0 0.0
2017-Apr-19 20:58N 51°14' E 002°55'0 0.1
2017-Apr-19 20:28N 51°14' E 002°55'0 0.0
2017-Apr-19 19:58N 51°14' E 002°55'0 0.0
2017-Apr-19 19:28N 51°14' E 002°55'0 0.0
2017-Apr-19 18:58N 51°14' E 002°55'0 0.1
2017-Apr-19 18:28N 51°14' E 002°55'0 0.0
2017-Apr-19 17:58N 51°14' E 002°55'0 0.0
2017-Apr-19 17:28N 51°14' E 002°55'0 0.0
2017-Apr-19 16:58N 51°14' E 002°55'0 0.0
2017-Apr-19 16:28N 51°14' E 002°55'0 0.0
2017-Apr-19 16:00N 51°14' E 002°55'0 0.0
2017-Apr-19 15:30N 51°14' E 002°55'0 0.0
2017-Apr-19 15:00N 51°14' E 002°55'0 0.0
2017-Apr-19 14:30N 51°14' E 002°55'4 3.7
2017-Apr-19 13:31N 51°18' E 002°54'1 3.0
2017-Apr-19 13:00N 51°18' E 002°56'3 5.1
2017-Apr-19 12:31N 51°21' E 002°57'3 5.2
2017-Apr-19 12:00N 51°23' E 002°58'3 5.6
2017-Apr-19 11:30N 51°26' E 002°59'3 5.2
2017-Apr-19 11:00N 51°28' E 003°01'3 5.2
2017-Apr-19 10:27N 51°31' E 003°04'2 5.1
2017-Apr-19 10:00N 51°32' E 003°07'3 5.0
2017-Apr-19 09:21N 51°35' E 003°10'2 4.4
2017-Apr-19 08:58N 51°36' E 003°12'2 3.0
2017-Apr-19 08:21N 51°37' E 003°14'23 3.8
2017-Apr-19 02:25N 51°52' E 003°42'2 5.8
2017-Apr-19 02:00N 51°54' E 003°44'2 4.1
2017-Apr-19 01:30N 51°55' E 003°47'2 4.6
2017-Apr-19 01:00N 51°55' E 003°51'3 6.5
2017-Apr-19 00:31N 51°57' E 003°54'4 7.3
2017-Apr-19 00:01N 52°00' E 003°58'3 6.2
2017-Apr-18 23:30N 52°02' E 004°02'3 5.8
2017-Apr-18 23:01N 52°04' E 004°05'3 6.2
2017-Apr-18 22:30N 52°07' E 004°09'3 6.2
2017-Apr-18 22:01N 52°09' E 004°12'3 6.3
2017-Apr-18 21:31N 52°11' E 004°15'3 6.6
2017-Apr-18 21:00N 52°14' E 004°18'3 7.0
2017-Apr-18 20:31N 52°18' E 004°20'3 6.7
2017-Apr-18 20:01N 52°21' E 004°22'3 6.3
2017-Apr-18 19:31N 52°24' E 004°23'3 5.7
2017-Apr-18 19:01N 52°26' E 004°25'3 5.6
2017-Apr-18 18:31N 52°29' E 004°27'3 6.0
2017-Apr-18 18:00N 52°32' E 004°28'3 6.3
2017-Apr-18 17:30N 52°35' E 004°29'4 7.0
2017-Apr-18 17:00N 52°38' E 004°30'4 7.5
2017-Apr-18 16:30N 52°42' E 004°32'4 8.0
2017-Apr-18 16:00N 52°46' E 004°34'4 8.0
2017-Apr-18 15:30N 52°50' E 004°37'4 8.4
2017-Apr-18 15:00N 52°54' E 004°39'3 6.7
2017-Apr-18 14:30N 52°56' E 004°42'4 3.6
2017-Apr-18 13:30N 52°59' E 004°46'1 2.8
2017-Apr-18 12:59N 52°58' E 004°47'0 0.0
2017-Apr-18 12:29N 52°58' E 004°47'  
2017-Apr-14 10:58N 52°58' E 004°47'0 0.0
2017-Apr-14 10:28N 52°58' E 004°47'0 0.0
2017-Apr-14 09:52N 52°58' E 004°47'0 0.0
2017-Apr-14 09:28N 52°58' E 004°47'0 0.0
2017-Apr-14 08:52N 52°58' E 004°47'0 0.0
2017-Apr-14 08:25N 52°58' E 004°47'0 0.0
2017-Apr-14 07:58N 52°58' E 004°47'0 0.0
2017-Apr-14 07:19N 52°58' E 004°47'0 0.0
2017-Apr-14 06:58N 52°58' E 004°47'0 0.0
2017-Apr-14 06:28N 52°58' E 004°47'0 0.0
2017-Apr-14 05:58N 52°58' E 004°47'0 0.0
2017-Apr-14 05:28N 52°58' E 004°47'0 0.0
2017-Apr-14 04:58N 52°58' E 004°47'0 0.0
2017-Apr-14 04:10N 52°58' E 004°47'0 0.0
2017-Apr-14 03:58N 52°58' E 004°47'0 0.0
2017-Apr-14 03:25N 52°58' E 004°47'0 0.0
2017-Apr-14 02:58N 52°58' E 004°47'0 0.0
2017-Apr-14 02:19N 52°58' E 004°47'0 0.0
2017-Apr-14 01:49N 52°58' E 004°47'0 0.0
2017-Apr-14 01:22N 52°58' E 004°47'0 0.0
2017-Apr-14 00:55N 52°58' E 004°47'0 0.0
2017-Apr-14 00:25N 52°58' E 004°47'0 0.0
2017-Apr-13 23:58N 52°58' E 004°47'0 0.0
2017-Apr-13 23:25N 52°58' E 004°47'0 0.0
2017-Apr-13 22:58N 52°58' E 004°47'0 0.0
2017-Apr-13 22:28N 52°58' E 004°47'0 0.0
2017-Apr-13 21:58N 52°58' E 004°47'0 0.0
2017-Apr-13 21:28N 52°58' E 004°47'0 0.0
2017-Apr-13 20:37N 52°58' E 004°47'0 0.0
2017-Apr-13 20:22N 52°58' E 004°47'0 0.0
2017-Apr-13 19:58N 52°58' E 004°47'0 0.0
2017-Apr-13 13:41N 52°58' E 004°47'0 0.0
2017-Apr-13 13:30N 52°58' E 004°47'0 0.1
2017-Apr-13 13:00N 52°58' E 004°47'1 1.7
2017-Apr-13 12:30N 52°59' E 004°47'2 3.9
2017-Apr-13 12:00N 53°00' E 004°49'4 7.5
2017-Apr-13 11:30N 53°03' E 004°54'3 5.7
2017-Apr-13 10:58N 53°04' E 004°58'3 5.9
2017-Apr-13 10:30N 53°04' E 005°03'4 7.3
2017-Apr-13 10:00N 53°05' E 005°08'2 4.8
2017-Apr-13 09:30N 53°07' E 005°11'2 3.1
2017-Apr-13 09:00N 53°08' E 005°10'2 3.6
2017-Apr-13 08:30N 53°10' E 005°11'0 0.0
2017-Apr-13 08:00N 53°10' E 005°11'1 2.5
2017-Apr-13 07:28N 53°11' E 005°09'3 5.8
2017-Apr-13 06:58N 53°14' E 005°09'4 7.8
2017-Apr-13 06:30N 53°17' E 005°12'3 5.0
2017-Apr-13 05:56N 53°19' E 005°15'3 0.6
2017-Apr-13 01:05N 53°22' E 005°13'0 0.0
2017-Apr-13 00:56N 53°22' E 005°13'0 0.0
2017-Apr-13 00:20N 53°22' E 005°13'0 0.0
2017-Apr-12 23:56N 53°22' E 005°13'0 0.0
2017-Apr-12 11:38N 53°22' E 005°13'0 0.0
2017-Apr-12 11:29N 53°22' E 005°13'1 1.2
2017-Apr-12 10:35N 53°21' E 005°12'1 6.8
2017-Apr-12 10:29N 53°20' E 005°13'2 4.8
2017-Apr-12 10:01N 53°18' E 005°15'4 6.5
2017-Apr-12 09:24N 53°20' E 005°08'2 6.2
2017-Apr-12 09:00N 53°19' E 005°04'22 3.4
2017-Apr-12 02:27N 53°06' E 004°36'2 4.9
2017-Apr-12 01:57N 53°03' E 004°34'2 4.3
2017-Apr-12 01:30N 53°02' E 004°33'2 4.0
2017-Apr-12 00:58N 52°59' E 004°32'2 4.4
2017-Apr-12 00:29N 52°57' E 004°32'2 4.6
2017-Apr-12 00:00N 52°55' E 004°32'2 4.6
2017-Apr-11 23:30N 52°53' E 004°32'2 4.7
2017-Apr-11 23:01N 52°50' E 004°31'2 4.5
2017-Apr-11 22:30N 52°48' E 004°31'2 4.4
2017-Apr-11 22:01N 52°46' E 004°31'2 4.4
2017-Apr-11 21:30N 52°44' E 004°31'2 4.6
2017-Apr-11 21:00N 52°42' E 004°30'2 4.8
2017-Apr-11 20:30N 52°39' E 004°29'3 5.0
2017-Apr-11 20:00N 52°37' E 004°29'3 5.2
2017-Apr-11 19:30N 52°34' E 004°29'3 5.1
2017-Apr-11 19:00N 52°32' E 004°29'2 4.9
2017-Apr-11 18:30N 52°29' E 004°31'2 4.7
2017-Apr-11 18:00N 52°28' E 004°34'1 2.0
2017-Apr-11 17:30N 52°28' E 004°36'0 0.2
2017-Apr-11 17:00N 52°28' E 004°36'0 0.0
2017-Apr-11 16:27N 52°28' E 004°36'0 0.0
2017-Apr-11 16:00N 52°28' E 004°36'0 0.0
2017-Apr-11 15:30N 52°28' E 004°36'0 0.0
2017-Apr-11 15:00N 52°28' E 004°36'2 4.3
2017-Apr-11 14:30N 52°28' E 004°39'  
Track history (hours):
 
Tides and Currents Weather Stations Pressure Air Temp Water Temp Dewpoint Dewpoint Depression Visibility Wind Speed Wind Dir Waves Ship Positions

Urania (Netherlands)

Flagship of the Royal Netherlands Naval College.

Last reported at 2017-Apr-21 14:00 UTC. Time now 2017-Apr-26 15:40 UTC.
Position N 52°58' E 004°47'.

Length 27 m; draft 2.6 m.

Type: Sailing vessel. MMSI: 245804000.

Date/timePositionNaut miles runAvg speedWind from/ knotsBaromVisibWave heightAir tempDewpointWater temp
2017-Apr-21 14:00N 52°58' E 004°47'0 0.0
2017-Apr-21 13:30N 52°58' E 004°47'0 0.0
2017-Apr-21 13:00N 52°58' E 004°47'0 0.5
2017-Apr-21 12:30N 52°58' E 004°47'0 0.0
2017-Apr-21 12:00N 52°58' E 004°47'0 0.0
2017-Apr-21 11:30N 52°58' E 004°47'0 0.0
2017-Apr-21 11:00N 52°58' E 004°47'0 0.0
2017-Apr-21 10:30N 52°58' E 004°47'0 0.0
2017-Apr-21 10:00N 52°58' E 004°47'0 0.0
2017-Apr-21 09:30N 52°58' E 004°47'0 0.0
2017-Apr-21 09:01N 52°58' E 004°47'0 0.0
2017-Apr-21 08:30N 52°58' E 004°47'1 1.5
2017-Apr-21 08:00N 52°58' E 004°46'2 3.5
2017-Apr-21 07:31N 52°58' E 004°43'2 3.9
2017-Apr-21 07:00N 52°56' E 004°42'2 3.4
2017-Apr-21 06:30N 52°55' E 004°42'1 2.8
2017-Apr-21 06:00N 52°53' E 004°40'2 3.1
2017-Apr-21 05:31N 52°52' E 004°39'2 3.3
2017-Apr-21 05:00N 52°51' E 004°37'2 3.8
2017-Apr-21 04:30N 52°49' E 004°36'2 4.1
2017-Apr-21 04:01N 52°47' E 004°35'2 4.5
2017-Apr-21 03:30N 52°45' E 004°34'2 4.4
2017-Apr-21 03:00N 52°43' E 004°33'2 4.7
2017-Apr-21 02:30N 52°41' E 004°32'2 4.5
2017-Apr-21 02:01N 52°38' E 004°31'3 5.2
2017-Apr-21 01:31N 52°36' E 004°30'3 5.4
2017-Apr-21 01:00N 52°33' E 004°29'3 5.7
2017-Apr-21 00:31N 52°31' E 004°27'3 5.7
2017-Apr-21 00:00N 52°28' E 004°26'3 6.0
2017-Apr-20 23:30N 52°25' E 004°24'3 6.0
2017-Apr-20 23:01N 52°22' E 004°24'2 4.9
2017-Apr-20 22:31N 52°22' E 004°20'3 5.9
2017-Apr-20 22:01N 52°22' E 004°15'3 5.7
2017-Apr-20 21:30N 52°22' E 004°11'3 6.3
2017-Apr-20 21:01N 52°19' E 004°10'3 6.6
2017-Apr-20 20:31N 52°16' E 004°10'3 6.0
2017-Apr-20 20:00N 52°13' E 004°11'3 5.3
2017-Apr-20 19:30N 52°10' E 004°11'2 4.9
2017-Apr-20 19:01N 52°08' E 004°10'2 4.4
2017-Apr-20 18:30N 52°06' E 004°09'2 4.9
2017-Apr-20 18:01N 52°04' E 004°06'2 4.7
2017-Apr-20 17:31N 52°03' E 004°03'2 4.9
2017-Apr-20 17:00N 52°01' E 004°00'2 4.6
2017-Apr-20 16:31N 51°59' E 003°58'2 4.4
2017-Apr-20 16:00N 51°58' E 003°55'2 4.6
2017-Apr-20 15:30N 51°57' E 003°52'2 4.6
2017-Apr-20 15:00N 51°55' E 003°49'21 5.4
2017-Apr-20 11:09N 51°42' E 003°23'7 6.6
2017-Apr-20 10:05N 51°37' E 003°15'1 6.9
2017-Apr-20 09:59N 51°36' E 003°14'3 6.8
2017-Apr-20 09:29N 51°34' E 003°11'3 7.0
2017-Apr-20 09:00N 51°31' E 003°08'4 7.3
2017-Apr-20 08:30N 51°28' E 003°04'4 7.3
2017-Apr-20 08:01N 51°25' E 003°01'4 7.8
2017-Apr-20 07:30N 51°22' E 002°58'4 7.1
2017-Apr-20 07:00N 51°19' E 002°55'3 6.1
2017-Apr-20 06:30N 51°16' E 002°54'2 3.9
2017-Apr-20 05:58N 51°14' E 002°55'0 0.0
2017-Apr-20 05:28N 51°14' E 002°55'0 0.0
2017-Apr-20 04:58N 51°14' E 002°55'0 0.0
2017-Apr-20 04:25N 51°14' E 002°55'0 0.0
2017-Apr-20 03:58N 51°14' E 002°55'0 0.0
2017-Apr-20 03:28N 51°14' E 002°55'0 0.0
2017-Apr-20 02:58N 51°14' E 002°55'0 0.0
2017-Apr-20 02:28N 51°14' E 002°55'0 0.0
2017-Apr-20 01:55N 51°14' E 002°55'0 0.0
2017-Apr-20 01:28N 51°14' E 002°55'0 0.0
2017-Apr-20 00:58N 51°14' E 002°55'0 0.0
2017-Apr-20 00:28N 51°14' E 002°55'0 0.0
2017-Apr-19 23:58N 51°14' E 002°55'0 0.0
2017-Apr-19 23:28N 51°14' E 002°55'0 0.0
2017-Apr-19 22:58N 51°14' E 002°55'0 0.0
2017-Apr-19 22:28N 51°14' E 002°55'0 0.0
2017-Apr-19 21:58N 51°14' E 002°55'0 0.0
2017-Apr-19 21:28N 51°14' E 002°55'0 0.0
2017-Apr-19 20:58N 51°14' E 002°55'0 0.1
2017-Apr-19 20:28N 51°14' E 002°55'0 0.0
2017-Apr-19 19:58N 51°14' E 002°55'0 0.0
2017-Apr-19 19:28N 51°14' E 002°55'0 0.0
2017-Apr-19 18:58N 51°14' E 002°55'0 0.1
2017-Apr-19 18:28N 51°14' E 002°55'0 0.0
2017-Apr-19 17:58N 51°14' E 002°55'0 0.0
2017-Apr-19 17:28N 51°14' E 002°55'0 0.0
2017-Apr-19 16:58N 51°14' E 002°55'0 0.0
2017-Apr-19 16:28N 51°14' E 002°55'0 0.0
2017-Apr-19 16:00N 51°14' E 002°55'0 0.0
2017-Apr-19 15:30N 51°14' E 002°55'0 0.0
2017-Apr-19 15:00N 51°14' E 002°55'0 0.0
2017-Apr-19 14:30N 51°14' E 002°55'4 3.7
2017-Apr-19 13:31N 51°18' E 002°54'1 3.0
2017-Apr-19 13:00N 51°18' E 002°56'3 5.1
2017-Apr-19 12:31N 51°21' E 002°57'3 5.2
2017-Apr-19 12:00N 51°23' E 002°58'3 5.6
2017-Apr-19 11:30N 51°26' E 002°59'3 5.2
2017-Apr-19 11:00N 51°28' E 003°01'3 5.2
2017-Apr-19 10:27N 51°31' E 003°04'2 5.1
2017-Apr-19 10:00N 51°32' E 003°07'3 5.0
2017-Apr-19 09:21N 51°35' E 003°10'2 4.4
2017-Apr-19 08:58N 51°36' E 003°12'2 3.0
2017-Apr-19 08:21N 51°37' E 003°14'23 3.8
2017-Apr-19 02:25N 51°52' E 003°42'2 5.8
2017-Apr-19 02:00N 51°54' E 003°44'2 4.1
2017-Apr-19 01:30N 51°55' E 003°47'2 4.6
2017-Apr-19 01:00N 51°55' E 003°51'3 6.5
2017-Apr-19 00:31N 51°57' E 003°54'4 7.3
2017-Apr-19 00:01N 52°00' E 003°58'3 6.2
2017-Apr-18 23:30N 52°02' E 004°02'3 5.8
2017-Apr-18 23:01N 52°04' E 004°05'3 6.2
2017-Apr-18 22:30N 52°07' E 004°09'3 6.2
2017-Apr-18 22:01N 52°09' E 004°12'3 6.3
2017-Apr-18 21:31N 52°11' E 004°15'3 6.6
2017-Apr-18 21:00N 52°14' E 004°18'3 7.0
2017-Apr-18 20:31N 52°18' E 004°20'3 6.7
2017-Apr-18 20:01N 52°21' E 004°22'3 6.3
2017-Apr-18 19:31N 52°24' E 004°23'3 5.7
2017-Apr-18 19:01N 52°26' E 004°25'3 5.6
2017-Apr-18 18:31N 52°29' E 004°27'3 6.0
2017-Apr-18 18:00N 52°32' E 004°28'3 6.3
2017-Apr-18 17:30N 52°35' E 004°29'4 7.0
2017-Apr-18 17:00N 52°38' E 004°30'4 7.5
2017-Apr-18 16:30N 52°42' E 004°32'4 8.0
2017-Apr-18 16:00N 52°46' E 004°34'4 8.0
2017-Apr-18 15:30N 52°50' E 004°37'4 8.4
2017-Apr-18 15:00N 52°54' E 004°39'3 6.7
2017-Apr-18 14:30N 52°56' E 004°42'4 3.6
2017-Apr-18 13:30N 52°59' E 004°46'1 2.8
2017-Apr-18 12:59N 52°58' E 004°47'0 0.0
2017-Apr-18 12:29N 52°58' E 004°47'  
2017-Apr-14 10:58N 52°58' E 004°47'0 0.0
2017-Apr-14 10:28N 52°58' E 004°47'0 0.0
2017-Apr-14 09:52N 52°58' E 004°47'0 0.0
2017-Apr-14 09:28N 52°58' E 004°47'0 0.0
2017-Apr-14 08:52N 52°58' E 004°47'0 0.0
2017-Apr-14 08:25N 52°58' E 004°47'0 0.0
2017-Apr-14 07:58N 52°58' E 004°47'0 0.0
2017-Apr-14 07:19N 52°58' E 004°47'0 0.0
2017-Apr-14 06:58N 52°58' E 004°47'0 0.0
2017-Apr-14 06:28N 52°58' E 004°47'0 0.0
2017-Apr-14 05:58N 52°58' E 004°47'0 0.0
2017-Apr-14 05:28N 52°58' E 004°47'0 0.0
2017-Apr-14 04:58N 52°58' E 004°47'0 0.0
2017-Apr-14 04:10N 52°58' E 004°47'0 0.0
2017-Apr-14 03:58N 52°58' E 004°47'0 0.0
2017-Apr-14 03:25N 52°58' E 004°47'0 0.0
2017-Apr-14 02:58N 52°58' E 004°47'0 0.0
2017-Apr-14 02:19N 52°58' E 004°47'0 0.0
2017-Apr-14 01:49N 52°58' E 004°47'0 0.0
2017-Apr-14 01:22N 52°58' E 004°47'0 0.0
2017-Apr-14 00:55N 52°58' E 004°47'0 0.0
2017-Apr-14 00:25N 52°58' E 004°47'0 0.0
2017-Apr-13 23:58N 52°58' E 004°47'0 0.0
2017-Apr-13 23:25N 52°58' E 004°47'0 0.0
2017-Apr-13 22:58N 52°58' E 004°47'0 0.0
2017-Apr-13 22:28N 52°58' E 004°47'0 0.0
2017-Apr-13 21:58N 52°58' E 004°47'0 0.0
2017-Apr-13 21:28N 52°58' E 004°47'0 0.0
2017-Apr-13 20:37N 52°58' E 004°47'0 0.0
2017-Apr-13 20:22N 52°58' E 004°47'0 0.0
2017-Apr-13 19:58N 52°58' E 004°47'0 0.0
2017-Apr-13 13:41N 52°58' E 004°47'0 0.0
2017-Apr-13 13:30N 52°58' E 004°47'0 0.1
2017-Apr-13 13:00N 52°58' E 004°47'1 1.7
2017-Apr-13 12:30N 52°59' E 004°47'2 3.9
2017-Apr-13 12:00N 53°00' E 004°49'4 7.5
2017-Apr-13 11:30N 53°03' E 004°54'3 5.7
2017-Apr-13 10:58N 53°04' E 004°58'3 5.9
2017-Apr-13 10:30N 53°04' E 005°03'4 7.3
2017-Apr-13 10:00N 53°05' E 005°08'2 4.8
2017-Apr-13 09:30N 53°07' E 005°11'2 3.1
2017-Apr-13 09:00N 53°08' E 005°10'2 3.6
2017-Apr-13 08:30N 53°10' E 005°11'0 0.0
2017-Apr-13 08:00N 53°10' E 005°11'1 2.5
2017-Apr-13 07:28N 53°11' E 005°09'3 5.8
2017-Apr-13 06:58N 53°14' E 005°09'4 7.8
2017-Apr-13 06:30N 53°17' E 005°12'3 5.0
2017-Apr-13 05:56N 53°19' E 005°15'3 0.6
2017-Apr-13 01:05N 53°22' E 005°13'0 0.0
2017-Apr-13 00:56N 53°22' E 005°13'0 0.0
2017-Apr-13 00:20N 53°22' E 005°13'0 0.0
2017-Apr-12 23:56N 53°22' E 005°13'0 0.0
2017-Apr-12 11:38N 53°22' E 005°13'0 0.0
2017-Apr-12 11:29N 53°22' E 005°13'1 1.2
2017-Apr-12 10:35N 53°21' E 005°12'1 6.8
2017-Apr-12 10:29N 53°20' E 005°13'2 4.8
2017-Apr-12 10:01N 53°18' E 005°15'4 6.5
2017-Apr-12 09:24N 53°20' E 005°08'2 6.2
2017-Apr-12 09:00N 53°19' E 005°04'22 3.4
2017-Apr-12 02:27N 53°06' E 004°36'2 4.9
2017-Apr-12 01:57N 53°03' E 004°34'2 4.3
2017-Apr-12 01:30N 53°02' E 004°33'2 4.0
2017-Apr-12 00:58N 52°59' E 004°32'2 4.4
2017-Apr-12 00:29N 52°57' E 004°32'2 4.6
2017-Apr-12 00:00N 52°55' E 004°32'2 4.6
2017-Apr-11 23:30N 52°53' E 004°32'2 4.7
2017-Apr-11 23:01N 52°50' E 004°31'2 4.5
2017-Apr-11 22:30N 52°48' E 004°31'2 4.4
2017-Apr-11 22:01N 52°46' E 004°31'2 4.4
2017-Apr-11 21:30N 52°44' E 004°31'2 4.6
2017-Apr-11 21:00N 52°42' E 004°30'2 4.8
2017-Apr-11 20:30N 52°39' E 004°29'3 5.0
2017-Apr-11 20:00N 52°37' E 004°29'3 5.2
2017-Apr-11 19:30N 52°34' E 004°29'3 5.1
2017-Apr-11 19:00N 52°32' E 004°29'2 4.9
2017-Apr-11 18:30N 52°29' E 004°31'2 4.7
2017-Apr-11 18:00N 52°28' E 004°34'1 2.0
2017-Apr-11 17:30N 52°28' E 004°36'0 0.2
2017-Apr-11 17:00N 52°28' E 004°36'0 0.0
2017-Apr-11 16:27N 52°28' E 004°36'0 0.0
2017-Apr-11 16:00N 52°28' E 004°36'0 0.0
2017-Apr-11 15:30N 52°28' E 004°36'0 0.0
2017-Apr-11 15:00N 52°28' E 004°36'2 4.3
2017-Apr-11 14:30N 52°28' E 004°39'  

Dump ship's entire track history